sensor_id;sensor_type;location;lat;lon;timestamp;P1;durP1;ratioP1;P2;durP2;ratioP2
22378;SDS011;11357;49.990;7.370;2022-11-15T00:01:35;1999.90;;;891.47;;
22378;SDS011;11357;49.990;7.370;2022-11-15T00:04:04;1999.90;;;909.87;;
22378;SDS011;11357;49.990;7.370;2022-11-15T00:06:30;1999.90;;;811.43;;
22378;SDS011;11357;49.990;7.370;2022-11-15T00:08:59;1999.90;;;916.33;;
22378;SDS011;11357;49.990;7.370;2022-11-15T00:11:25;1999.90;;;797.47;;
22378;SDS011;11357;49.990;7.370;2022-11-15T00:13:54;1999.90;;;903.80;;
22378;SDS011;11357;49.990;7.370;2022-11-15T00:16:20;1999.90;;;926.90;;
22378;SDS011;11357;49.990;7.370;2022-11-15T00:18:45;1999.90;;;959.97;;
22378;SDS011;11357;49.990;7.370;2022-11-15T00:21:11;1999.90;;;822.60;;
22378;SDS011;11357;49.990;7.370;2022-11-15T00:23:38;1999.90;;;731.20;;
22378;SDS011;11357;49.990;7.370;2022-11-15T00:26:03;1999.90;;;816.57;;
22378;SDS011;11357;49.990;7.370;2022-11-15T00:28:29;1999.90;;;921.80;;
22378;SDS011;11357;49.990;7.370;2022-11-15T00:31:06;1999.90;;;957.67;;
22378;SDS011;11357;49.990;7.370;2022-11-15T00:33:34;1999.90;;;806.07;;
22378;SDS011;11357;49.990;7.370;2022-11-15T00:36:00;1999.90;;;962.20;;
22378;SDS011;11357;49.990;7.370;2022-11-15T00:38:34;1999.90;;;802.47;;
22378;SDS011;11357;49.990;7.370;2022-11-15T00:41:00;1999.90;;;823.07;;
22378;SDS011;11357;49.990;7.370;2022-11-15T00:43:27;1999.90;;;853.43;;
22378;SDS011;11357;49.990;7.370;2022-11-15T00:45:53;1999.90;;;852.10;;
22378;SDS011;11357;49.990;7.370;2022-11-15T00:48:18;1999.90;;;899.93;;
22378;SDS011;11357;49.990;7.370;2022-11-15T00:50:44;1999.90;;;862.93;;
22378;SDS011;11357;49.990;7.370;2022-11-15T00:53:10;1999.90;;;785.23;;
22378;SDS011;11357;49.990;7.370;2022-11-15T00:55:36;1999.90;;;768.90;;
22378;SDS011;11357;49.990;7.370;2022-11-15T00:58:01;1999.90;;;875.53;;
22378;SDS011;11357;49.990;7.370;2022-11-15T01:00:27;1999.90;;;893.70;;
22378;SDS011;11357;49.990;7.370;2022-11-15T01:02:53;1999.90;;;851.80;;
22378;SDS011;11357;49.990;7.370;2022-11-15T01:05:19;1999.90;;;848.67;;
22378;SDS011;11357;49.990;7.370;2022-11-15T01:07:44;1999.90;;;644.03;;
22378;SDS011;11357;49.990;7.370;2022-11-15T01:10:11;1999.90;;;904.03;;
22378;SDS011;11357;49.990;7.370;2022-11-15T01:12:36;1999.90;;;787.43;;
22378;SDS011;11357;49.990;7.370;2022-11-15T01:15:02;1999.90;;;867.13;;
22378;SDS011;11357;49.990;7.370;2022-11-15T01:17:29;1999.90;;;910.57;;
22378;SDS011;11357;49.990;7.370;2022-11-15T01:19:55;1999.90;;;751.63;;
22378;SDS011;11357;49.990;7.370;2022-11-15T01:22:21;1999.90;;;899.27;;
22378;SDS011;11357;49.990;7.370;2022-11-15T01:24:46;1999.90;;;850.27;;
22378;SDS011;11357;49.990;7.370;2022-11-15T01:27:13;1999.90;;;902.60;;
22378;SDS011;11357;49.990;7.370;2022-11-15T01:29:39;1999.90;;;853.70;;
22378;SDS011;11357;49.990;7.370;2022-11-15T01:32:05;1999.90;;;884.87;;
22378;SDS011;11357;49.990;7.370;2022-11-15T01:34:30;1999.90;;;908.57;;
22378;SDS011;11357;49.990;7.370;2022-11-15T01:36:56;1999.90;;;893.90;;
22378;SDS011;11357;49.990;7.370;2022-11-15T01:39:22;1999.90;;;899.47;;
22378;SDS011;11357;49.990;7.370;2022-11-15T01:41:48;1999.90;;;880.33;;
22378;SDS011;11357;49.990;7.370;2022-11-15T01:47:09;1999.90;;;806.53;;
22378;SDS011;11357;49.990;7.370;2022-11-15T01:49:36;1999.90;;;690.13;;
22378;SDS011;11357;49.990;7.370;2022-11-15T01:52:05;1999.90;;;794.23;;
22378;SDS011;11357;49.990;7.370;2022-11-15T01:54:34;1999.90;;;926.07;;
22378;SDS011;11357;49.990;7.370;2022-11-15T01:57:04;1999.90;;;799.97;;
22378;SDS011;11357;49.990;7.370;2022-11-15T01:59:34;1999.90;;;975.83;;
22378;SDS011;11357;49.990;7.370;2022-11-15T02:02:01;1999.90;;;945.60;;
22378;SDS011;11357;49.990;7.370;2022-11-15T02:06:54;1999.90;;;862.03;;
22378;SDS011;11357;49.990;7.370;2022-11-15T02:09:20;1999.90;;;899.97;;
22378;SDS011;11357;49.990;7.370;2022-11-15T02:11:45;1999.90;;;889.60;;
22378;SDS011;11357;49.990;7.370;2022-11-15T02:14:13;1999.90;;;851.30;;
22378;SDS011;11357;49.990;7.370;2022-11-15T02:25:03;1999.90;;;796.90;;
22378;SDS011;11357;49.990;7.370;2022-11-15T02:30:43;1999.90;;;466.33;;
22378;SDS011;11357;49.990;7.370;2022-11-15T02:36:06;1999.90;;;879.73;;
22378;SDS011;11357;49.990;7.370;2022-11-15T02:38:40;1999.90;;;693.93;;
22378;SDS011;11357;49.990;7.370;2022-11-15T02:41:35;1999.90;;;741.27;;
22378;SDS011;11357;49.990;7.370;2022-11-15T02:44:17;1999.90;;;704.67;;
22378;SDS011;11357;49.990;7.370;2022-11-15T02:46:51;1999.90;;;726.83;;
22378;SDS011;11357;49.990;7.370;2022-11-15T02:49:36;1999.90;;;753.30;;
22378;SDS011;11357;49.990;7.370;2022-11-15T02:52:04;1999.90;;;697.07;;
22378;SDS011;11357;49.990;7.370;2022-11-15T02:54:30;1999.90;;;806.73;;
22378;SDS011;11357;49.990;7.370;2022-11-15T02:57:16;1999.90;;;708.27;;
22378;SDS011;11357;49.990;7.370;2022-11-15T03:00:07;1999.90;;;809.60;;
22378;SDS011;11357;49.990;7.370;2022-11-15T03:02:59;1999.90;;;695.13;;
22378;SDS011;11357;49.990;7.370;2022-11-15T03:05:37;1999.90;;;836.90;;
22378;SDS011;11357;49.990;7.370;2022-11-15T03:13:26;1999.90;;;560.03;;
22378;SDS011;11357;49.990;7.370;2022-11-15T03:18:55;1948.53;;;454.10;;
22378;SDS011;11357;49.990;7.370;2022-11-15T03:21:40;1999.90;;;833.77;;
22378;SDS011;11357;49.990;7.370;2022-11-15T03:24:06;1999.90;;;574.50;;
22378;SDS011;11357;49.990;7.370;2022-11-15T03:26:34;1999.90;;;905.20;;
22378;SDS011;11357;49.990;7.370;2022-11-15T03:29:07;1999.90;;;646.77;;
22378;SDS011;11357;49.990;7.370;2022-11-15T03:31:48;1999.90;;;590.73;;
22378;SDS011;11357;49.990;7.370;2022-11-15T03:36:49;1999.90;;;585.93;;
22378;SDS011;11357;49.990;7.370;2022-11-15T03:39:16;1999.90;;;999.90;;
22378;SDS011;11357;49.990;7.370;2022-11-15T03:41:49;1999.90;;;835.60;;
22378;SDS011;11357;49.990;7.370;2022-11-15T03:44:40;1999.90;;;698.83;;
22378;SDS011;11357;49.990;7.370;2022-11-15T03:50:16;1999.90;;;878.20;;
22378;SDS011;11357;49.990;7.370;2022-11-15T03:52:49;1999.90;;;801.43;;
22378;SDS011;11357;49.990;7.370;2022-11-15T03:55:17;1999.90;;;714.33;;
22378;SDS011;11357;49.990;7.370;2022-11-15T03:57:44;1999.90;;;866.17;;
22378;SDS011;11357;49.990;7.370;2022-11-15T04:00:12;1999.90;;;813.60;;
22378;SDS011;11357;49.990;7.370;2022-11-15T04:02:38;1999.90;;;999.90;;
22378;SDS011;11357;49.990;7.370;2022-11-15T04:05:03;1999.90;;;853.50;;
22378;SDS011;11357;49.990;7.370;2022-11-15T04:07:29;1999.90;;;883.57;;
22378;SDS011;11357;49.990;7.370;2022-11-15T04:09:55;1999.90;;;888.83;;
22378;SDS011;11357;49.990;7.370;2022-11-15T04:26:11;1999.90;;;869.70;;
22378;SDS011;11357;49.990;7.370;2022-11-15T04:28:40;1999.90;;;636.33;;
22378;SDS011;11357;49.990;7.370;2022-11-15T05:02:32;1999.90;;;666.30;;
22378;SDS011;11357;49.990;7.370;2022-11-15T05:05:16;1999.90;;;605.43;;
22378;SDS011;11357;49.990;7.370;2022-11-15T05:07:42;1999.90;;;657.97;;
22378;SDS011;11357;49.990;7.370;2022-11-15T05:10:08;1999.90;;;889.87;;
22378;SDS011;11357;49.990;7.370;2022-11-15T05:15:09;1999.90;;;679.30;;
22378;SDS011;11357;49.990;7.370;2022-11-15T05:17:35;1999.90;;;672.77;;
22378;SDS011;11357;49.990;7.370;2022-11-15T05:20:00;1999.90;;;696.07;;
22378;SDS011;11357;49.990;7.370;2022-11-15T05:22:26;1999.90;;;696.63;;
22378;SDS011;11357;49.990;7.370;2022-11-15T05:24:52;1999.90;;;673.17;;
22378;SDS011;11357;49.990;7.370;2022-11-15T05:27:18;1999.90;;;705.60;;
22378;SDS011;11357;49.990;7.370;2022-11-15T05:29:43;1999.90;;;683.33;;
22378;SDS011;11357;49.990;7.370;2022-11-15T05:47:41;1999.90;;;641.50;;
22378;SDS011;11357;49.990;7.370;2022-11-15T05:50:07;1999.90;;;864.17;;
22378;SDS011;11357;49.990;7.370;2022-11-15T05:52:40;1999.90;;;714.83;;
22378;SDS011;11357;49.990;7.370;2022-11-15T05:55:06;1999.90;;;646.87;;
22378;SDS011;11357;49.990;7.370;2022-11-15T05:57:33;1999.90;;;709.03;;
22378;SDS011;11357;49.990;7.370;2022-11-15T05:59:59;1999.90;;;871.40;;
22378;SDS011;11357;49.990;7.370;2022-11-15T06:15:38;1999.90;;;683.13;;
22378;SDS011;11357;49.990;7.370;2022-11-15T06:18:04;1999.90;;;662.97;;
22378;SDS011;11357;49.990;7.370;2022-11-15T06:20:30;1999.90;;;672.93;;
22378;SDS011;11357;49.990;7.370;2022-11-15T06:22:59;1999.90;;;647.80;;
22378;SDS011;11357;49.990;7.370;2022-11-15T06:25:26;1999.90;;;611.03;;
22378;SDS011;11357;49.990;7.370;2022-11-15T06:27:53;1999.90;;;597.10;;
22378;SDS011;11357;49.990;7.370;2022-11-15T06:30:20;1999.90;;;651.40;;
22378;SDS011;11357;49.990;7.370;2022-11-15T06:32:46;1999.90;;;570.93;;
22378;SDS011;11357;49.990;7.370;2022-11-15T06:35:13;1999.90;;;616.27;;
22378;SDS011;11357;49.990;7.370;2022-11-15T06:37:39;1999.90;;;661.10;;
22378;SDS011;11357;49.990;7.370;2022-11-15T06:40:05;1999.90;;;607.37;;
22378;SDS011;11357;49.990;7.370;2022-11-15T06:42:32;1999.90;;;863.93;;
22378;SDS011;11357;49.990;7.370;2022-11-15T06:44:58;1999.90;;;570.77;;
22378;SDS011;11357;49.990;7.370;2022-11-15T06:47:23;1999.90;;;622.43;;
22378;SDS011;11357;49.990;7.370;2022-11-15T06:49:49;1999.90;;;741.83;;
22378;SDS011;11357;49.990;7.370;2022-11-15T06:52:15;1999.90;;;885.83;;
22378;SDS011;11357;49.990;7.370;2022-11-15T06:54:43;1999.90;;;910.10;;
22378;SDS011;11357;49.990;7.370;2022-11-15T06:57:09;1999.90;;;664.27;;
22378;SDS011;11357;49.990;7.370;2022-11-15T06:59:35;1985.77;;;571.13;;
22378;SDS011;11357;49.990;7.370;2022-11-15T07:02:01;1999.90;;;674.93;;
22378;SDS011;11357;49.990;7.370;2022-11-15T07:04:27;1999.90;;;586.10;;
22378;SDS011;11357;49.990;7.370;2022-11-15T07:06:52;1999.90;;;664.17;;
22378;SDS011;11357;49.990;7.370;2022-11-15T07:09:18;1999.90;;;896.40;;
22378;SDS011;11357;49.990;7.370;2022-11-15T07:11:44;1999.90;;;871.37;;
22378;SDS011;11357;49.990;7.370;2022-11-15T07:14:09;1999.90;;;999.90;;
22378;SDS011;11357;49.990;7.370;2022-11-15T07:16:36;1999.90;;;873.63;;
22378;SDS011;11357;49.990;7.370;2022-11-15T07:19:01;1999.90;;;876.80;;
22378;SDS011;11357;49.990;7.370;2022-11-15T07:21:27;1999.90;;;755.83;;
22378;SDS011;11357;49.990;7.370;2022-11-15T07:23:53;1999.90;;;868.23;;
22378;SDS011;11357;49.990;7.370;2022-11-15T07:26:18;1999.90;;;855.97;;
22378;SDS011;11357;49.990;7.370;2022-11-15T07:28:44;1999.90;;;871.93;;
22378;SDS011;11357;49.990;7.370;2022-11-15T07:31:10;1999.90;;;999.90;;
22378;SDS011;11357;49.990;7.370;2022-11-15T07:33:36;1999.90;;;618.17;;
22378;SDS011;11357;49.990;7.370;2022-11-15T07:36:03;1999.90;;;877.43;;
22378;SDS011;11357;49.990;7.370;2022-11-15T07:38:30;1999.90;;;999.90;;
22378;SDS011;11357;49.990;7.370;2022-11-15T07:40:58;1999.90;;;869.07;;
22378;SDS011;11357;49.990;7.370;2022-11-15T07:43:26;1999.90;;;999.90;;
22378;SDS011;11357;49.990;7.370;2022-11-15T07:45:52;1999.90;;;999.90;;
22378;SDS011;11357;49.990;7.370;2022-11-15T07:48:18;1999.90;;;867.17;;
22378;SDS011;11357;49.990;7.370;2022-11-15T07:50:44;1999.90;;;866.60;;
22378;SDS011;11357;49.990;7.370;2022-11-15T07:53:10;1999.90;;;869.40;;
22378;SDS011;11357;49.990;7.370;2022-11-15T07:55:36;1999.90;;;999.90;;
22378;SDS011;11357;49.990;7.370;2022-11-15T07:58:03;1999.90;;;999.90;;
22378;SDS011;11357;49.990;7.370;2022-11-15T08:00:33;1999.90;;;999.90;;
22378;SDS011;11357;49.990;7.370;2022-11-15T08:03:10;1999.90;;;999.90;;
22378;SDS011;11357;49.990;7.370;2022-11-15T08:05:38;1999.90;;;999.90;;
22378;SDS011;11357;49.990;7.370;2022-11-15T08:08:05;1999.90;;;999.90;;
22378;SDS011;11357;49.990;7.370;2022-11-15T08:10:31;1999.90;;;999.90;;
22378;SDS011;11357;49.990;7.370;2022-11-15T08:13:01;1999.90;;;849.57;;
22378;SDS011;11357;49.990;7.370;2022-11-15T08:15:32;1999.90;;;871.67;;
22378;SDS011;11357;49.990;7.370;2022-11-15T08:18:00;1999.90;;;614.67;;
22378;SDS011;11357;49.990;7.370;2022-11-15T08:20:28;1999.90;;;569.27;;
22378;SDS011;11357;49.990;7.370;2022-11-15T08:22:55;1999.90;;;903.43;;
22378;SDS011;11357;49.990;7.370;2022-11-15T08:25:22;1999.90;;;880.40;;
22378;SDS011;11357;49.990;7.370;2022-11-15T08:27:55;1999.90;;;999.90;;
22378;SDS011;11357;49.990;7.370;2022-11-15T08:30:22;1999.90;;;597.13;;
22378;SDS011;11357;49.990;7.370;2022-11-15T08:32:49;1999.90;;;999.90;;
22378;SDS011;11357;49.990;7.370;2022-11-15T08:35:15;1999.90;;;884.90;;
22378;SDS011;11357;49.990;7.370;2022-11-15T08:37:41;1999.90;;;999.90;;
22378;SDS011;11357;49.990;7.370;2022-11-15T08:40:07;1999.90;;;999.90;;
22378;SDS011;11357;49.990;7.370;2022-11-15T09:11:07;1999.90;;;999.90;;
22378;SDS011;11357;49.990;7.370;2022-11-15T09:13:34;1999.90;;;829.63;;
22378;SDS011;11357;49.990;7.370;2022-11-15T09:16:01;1999.90;;;883.27;;
22378;SDS011;11357;49.990;7.370;2022-11-15T09:18:28;1999.90;;;999.90;;
22378;SDS011;11357;49.990;7.370;2022-11-15T09:20:57;1855.37;;;919.03;;
22378;SDS011;11357;49.990;7.370;2022-11-15T09:23:23;1430.10;;;840.37;;
22378;SDS011;11357;49.990;7.370;2022-11-15T09:25:50;1428.17;;;867.50;;
22378;SDS011;11357;49.990;7.370;2022-11-15T09:28:16;869.90;;;772.73;;
22378;SDS011;11357;49.990;7.370;2022-11-15T09:30:42;859.10;;;769.47;;
22378;SDS011;11357;49.990;7.370;2022-11-15T09:33:08;1196.73;;;792.07;;
22378;SDS011;11357;49.990;7.370;2022-11-15T09:35:35;896.37;;;742.13;;
22378;SDS011;11357;49.990;7.370;2022-11-15T09:38:01;1272.97;;;809.67;;
22378;SDS011;11357;49.990;7.370;2022-11-15T09:40:29;1247.30;;;821.83;;
22378;SDS011;11357;49.990;7.370;2022-11-15T09:45:45;769.23;;;682.47;;
22378;SDS011;11357;49.990;7.370;2022-11-15T09:48:31;1051.00;;;771.90;;
22378;SDS011;11357;49.990;7.370;2022-11-15T09:51:08;935.83;;;760.10;;
22378;SDS011;11357;49.990;7.370;2022-11-15T09:53:41;1098.50;;;791.30;;
22378;SDS011;11357;49.990;7.370;2022-11-15T09:56:19;1028.87;;;789.83;;
22378;SDS011;11357;49.990;7.370;2022-11-15T10:04:35;964.40;;;761.50;;
22378;SDS011;11357;49.990;7.370;2022-11-15T10:12:18;820.53;;;714.17;;
22378;SDS011;11357;49.990;7.370;2022-11-15T10:14:45;628.77;;;575.87;;
22378;SDS011;11357;49.990;7.370;2022-11-15T10:20:46;1663.33;;;860.60;;
22378;SDS011;11357;49.990;7.370;2022-11-15T10:43:28;1896.57;;;870.67;;
22378;SDS011;11357;49.990;7.370;2022-11-15T10:45:53;1999.90;;;911.07;;
22378;SDS011;11357;49.990;7.370;2022-11-15T10:48:20;1999.90;;;947.27;;
22378;SDS011;11357;49.990;7.370;2022-11-15T10:50:47;1999.90;;;958.60;;
22378;SDS011;11357;49.990;7.370;2022-11-15T11:19:19;837.20;;;748.23;;
22378;SDS011;11357;49.990;7.370;2022-11-15T11:24:44;423.53;;;393.37;;
22378;SDS011;11357;49.990;7.370;2022-11-15T11:35:13;142.40;;;134.63;;
22378;SDS011;11357;49.990;7.370;2022-11-15T11:40:42;184.27;;;173.30;;
22378;SDS011;11357;49.990;7.370;2022-11-15T11:51:04;452.40;;;419.13;;
22378;SDS011;11357;49.990;7.370;2022-11-15T12:17:03;32.40;;;30.60;;
22378;SDS011;11357;49.990;7.370;2022-11-15T12:19:29;20.20;;;19.03;;
22378;SDS011;11357;49.990;7.370;2022-11-15T12:22:06;137.53;;;130.07;;
22378;SDS011;11357;49.990;7.370;2022-11-15T12:24:43;5.93;;;5.27;;
22378;SDS011;11357;49.990;7.370;2022-11-15T12:27:27;55.83;;;53.03;;
22378;SDS011;11357;49.990;7.370;2022-11-15T12:30:13;24.33;;;22.97;;
22378;SDS011;11357;49.990;7.370;2022-11-15T12:35:41;49.33;;;46.70;;
22378;SDS011;11357;49.990;7.370;2022-11-15T12:38:10;131.57;;;124.60;;
22378;SDS011;11357;49.990;7.370;2022-11-15T12:40:38;269.30;;;252.17;;
22378;SDS011;11357;49.990;7.370;2022-11-15T12:43:40;34.60;;;32.90;;
22378;SDS011;11357;49.990;7.370;2022-11-15T12:46:12;264.90;;;249.20;;
22378;SDS011;11357;49.990;7.370;2022-11-15T12:51:12;264.33;;;249.40;;
22378;SDS011;11357;49.990;7.370;2022-11-15T12:53:37;124.03;;;117.23;;
22378;SDS011;11357;49.990;7.370;2022-11-15T13:01:10;16.53;;;15.63;;
22378;SDS011;11357;49.990;7.370;2022-11-15T13:06:40;36.63;;;34.77;;
22378;SDS011;11357;49.990;7.370;2022-11-15T13:14:49;196.27;;;185.33;;
22378;SDS011;11357;49.990;7.370;2022-11-15T13:17:24;187.10;;;176.47;;
22378;SDS011;11357;49.990;7.370;2022-11-15T13:22:32;179.20;;;169.50;;
22378;SDS011;11357;49.990;7.370;2022-11-15T13:27:51;209.17;;;196.73;;
22378;SDS011;11357;49.990;7.370;2022-11-15T13:30:22;125.13;;;118.10;;
22378;SDS011;11357;49.990;7.370;2022-11-15T13:32:49;111.30;;;105.47;;
22378;SDS011;11357;49.990;7.370;2022-11-15T13:35:36;6.17;;;3.67;;
22378;SDS011;11357;49.990;7.370;2022-11-15T13:38:04;6.57;;;6.13;;
22378;SDS011;11357;49.990;7.370;2022-11-15T13:40:35;35.07;;;33.20;;
22378;SDS011;11357;49.990;7.370;2022-11-15T13:48:41;67.00;;;63.47;;
22378;SDS011;11357;49.990;7.370;2022-11-15T13:51:13;227.70;;;214.23;;
22378;SDS011;11357;49.990;7.370;2022-11-15T13:53:48;126.57;;;119.93;;
22378;SDS011;11357;49.990;7.370;2022-11-15T13:56:28;148.77;;;140.53;;
22378;SDS011;11357;49.990;7.370;2022-11-15T13:58:57;272.67;;;256.33;;
22378;SDS011;11357;49.990;7.370;2022-11-15T14:01:22;389.40;;;361.57;;
22378;SDS011;11357;49.990;7.370;2022-11-15T14:03:57;228.47;;;214.47;;
22378;SDS011;11357;49.990;7.370;2022-11-15T14:06:25;131.27;;;124.33;;
22378;SDS011;11357;49.990;7.370;2022-11-15T14:09:04;90.87;;;86.03;;
22378;SDS011;11357;49.990;7.370;2022-11-15T14:11:36;157.07;;;148.47;;
22378;SDS011;11357;49.990;7.370;2022-11-15T14:19:01;121.53;;;115.10;;
22378;SDS011;11357;49.990;7.370;2022-11-15T14:21:28;132.97;;;126.03;;
22378;SDS011;11357;49.990;7.370;2022-11-15T14:24:15;129.93;;;123.03;;
22378;SDS011;11357;49.990;7.370;2022-11-15T14:26:41;51.27;;;48.70;;
22378;SDS011;11357;49.990;7.370;2022-11-15T14:31:47;83.33;;;78.60;;
22378;SDS011;11357;49.990;7.370;2022-11-15T14:34:13;377.60;;;346.93;;
22378;SDS011;11357;49.990;7.370;2022-11-15T14:36:39;220.83;;;206.53;;
22378;SDS011;11357;49.990;7.370;2022-11-15T14:39:04;496.23;;;457.17;;
22378;SDS011;11357;49.990;7.370;2022-11-15T14:41:33;345.23;;;319.30;;
22378;SDS011;11357;49.990;7.370;2022-11-15T14:44:03;482.70;;;447.57;;
22378;SDS011;11357;49.990;7.370;2022-11-15T14:46:30;547.33;;;501.93;;
22378;SDS011;11357;49.990;7.370;2022-11-15T14:48:56;503.90;;;462.43;;
22378;SDS011;11357;49.990;7.370;2022-11-15T14:51:21;644.73;;;578.73;;
22378;SDS011;11357;49.990;7.370;2022-11-15T14:53:47;742.20;;;663.83;;
22378;SDS011;11357;49.990;7.370;2022-11-15T14:56:13;819.73;;;706.20;;
22378;SDS011;11357;49.990;7.370;2022-11-15T14:58:41;771.33;;;673.83;;
22378;SDS011;11357;49.990;7.370;2022-11-15T15:03:41;1121.30;;;740.63;;
22378;SDS011;11357;49.990;7.370;2022-11-15T15:06:09;1325.13;;;801.03;;
22378;SDS011;11357;49.990;7.370;2022-11-15T15:08:34;1999.90;;;772.77;;
22378;SDS011;11357;49.990;7.370;2022-11-15T15:11:00;1483.10;;;759.00;;
22378;SDS011;11357;49.990;7.370;2022-11-15T15:13:26;1431.67;;;785.30;;
22378;SDS011;11357;49.990;7.370;2022-11-15T15:15:53;1526.10;;;784.70;;
22378;SDS011;11357;49.990;7.370;2022-11-15T15:18:19;1999.90;;;836.20;;
22378;SDS011;11357;49.990;7.370;2022-11-15T15:20:53;1360.43;;;792.87;;
22378;SDS011;11357;49.990;7.370;2022-11-15T16:04:57;1999.90;;;999.90;;
22378;SDS011;11357;49.990;7.370;2022-11-15T16:07:23;1999.90;;;874.80;;
22378;SDS011;11357;49.990;7.370;2022-11-15T16:09:49;1999.90;;;839.57;;
22378;SDS011;11357;49.990;7.370;2022-11-15T16:12:31;1999.90;;;824.07;;
22378;SDS011;11357;49.990;7.370;2022-11-15T16:15:01;1999.90;;;761.93;;
22378;SDS011;11357;49.990;7.370;2022-11-15T16:17:31;1999.90;;;812.07;;
22378;SDS011;11357;49.990;7.370;2022-11-15T16:19:58;1999.90;;;999.90;;
22378;SDS011;11357;49.990;7.370;2022-11-15T16:22:24;1999.90;;;999.90;;
22378;SDS011;11357;49.990;7.370;2022-11-15T16:24:50;1999.90;;;999.90;;
22378;SDS011;11357;49.990;7.370;2022-11-15T16:27:16;1999.90;;;767.73;;
22378;SDS011;11357;49.990;7.370;2022-11-15T16:29:44;1999.90;;;838.40;;
22378;SDS011;11357;49.990;7.370;2022-11-15T16:32:10;1999.90;;;869.13;;
22378;SDS011;11357;49.990;7.370;2022-11-15T16:34:36;1999.90;;;999.90;;
22378;SDS011;11357;49.990;7.370;2022-11-15T16:37:02;1999.90;;;759.30;;
22378;SDS011;11357;49.990;7.370;2022-11-15T16:39:28;1999.90;;;881.00;;
22378;SDS011;11357;49.990;7.370;2022-11-15T16:41:58;1999.90;;;999.90;;
22378;SDS011;11357;49.990;7.370;2022-11-15T16:44:24;1999.90;;;999.90;;
22378;SDS011;11357;49.990;7.370;2022-11-15T16:46:51;1982.43;;;847.53;;
22378;SDS011;11357;49.990;7.370;2022-11-15T16:49:17;1999.90;;;999.90;;
22378;SDS011;11357;49.990;7.370;2022-11-15T16:54:20;1999.90;;;999.90;;
22378;SDS011;11357;49.990;7.370;2022-11-15T16:56:45;1999.90;;;999.90;;
22378;SDS011;11357;49.990;7.370;2022-11-15T16:59:15;1999.90;;;999.90;;
22378;SDS011;11357;49.990;7.370;2022-11-15T17:01:42;1999.90;;;999.90;;
22378;SDS011;11357;49.990;7.370;2022-11-15T17:04:15;1999.90;;;759.47;;
22378;SDS011;11357;49.990;7.370;2022-11-15T17:06:42;1999.90;;;999.90;;
22378;SDS011;11357;49.990;7.370;2022-11-15T17:09:16;1999.90;;;999.90;;
22378;SDS011;11357;49.990;7.370;2022-11-15T19:00:23;1999.90;;;877.00;;
22378;SDS011;11357;49.990;7.370;2022-11-15T19:02:48;1999.90;;;705.47;;
22378;SDS011;11357;49.990;7.370;2022-11-15T19:05:17;1999.90;;;758.53;;
22378;SDS011;11357;49.990;7.370;2022-11-15T19:07:46;1999.90;;;693.67;;
22378;SDS011;11357;49.990;7.370;2022-11-15T19:10:13;1999.90;;;748.47;;
22378;SDS011;11357;49.990;7.370;2022-11-15T19:12:39;1999.90;;;709.47;;
22378;SDS011;11357;49.990;7.370;2022-11-15T19:15:05;1999.90;;;744.07;;
22378;SDS011;11357;49.990;7.370;2022-11-15T19:17:31;1999.90;;;818.63;;
22378;SDS011;11357;49.990;7.370;2022-11-15T19:19:56;1999.90;;;802.87;;
22378;SDS011;11357;49.990;7.370;2022-11-15T19:22:22;1999.90;;;670.53;;
22378;SDS011;11357;49.990;7.370;2022-11-15T19:24:48;1999.90;;;524.47;;
22378;SDS011;11357;49.990;7.370;2022-11-15T19:27:13;1999.90;;;654.50;;
22378;SDS011;11357;49.990;7.370;2022-11-15T19:29:39;1999.90;;;875.83;;
22378;SDS011;11357;49.990;7.370;2022-11-15T19:32:05;1999.90;;;585.43;;
22378;SDS011;11357;49.990;7.370;2022-11-15T19:34:31;1999.90;;;606.10;;
22378;SDS011;11357;49.990;7.370;2022-11-15T19:36:57;1999.90;;;665.93;;
22378;SDS011;11357;49.990;7.370;2022-11-15T19:39:23;1999.90;;;579.20;;
22378;SDS011;11357;49.990;7.370;2022-11-15T19:41:50;1999.90;;;653.73;;
22378;SDS011;11357;49.990;7.370;2022-11-15T19:44:15;1999.90;;;708.37;;
22378;SDS011;11357;49.990;7.370;2022-11-15T19:46:42;1999.90;;;639.20;;
22378;SDS011;11357;49.990;7.370;2022-11-15T19:49:08;1999.90;;;690.47;;
22378;SDS011;11357;49.990;7.370;2022-11-15T19:51:34;1999.90;;;628.50;;
22378;SDS011;11357;49.990;7.370;2022-11-15T19:54:01;1999.90;;;733.00;;
22378;SDS011;11357;49.990;7.370;2022-11-15T19:56:30;1999.90;;;736.73;;
22378;SDS011;11357;49.990;7.370;2022-11-15T19:58:57;1999.90;;;789.33;;
22378;SDS011;11357;49.990;7.370;2022-11-15T20:01:33;1999.90;;;748.73;;
22378;SDS011;11357;49.990;7.370;2022-11-15T20:04:03;1999.90;;;874.93;;
22378;SDS011;11357;49.990;7.370;2022-11-15T20:06:30;1999.90;;;639.97;;
22378;SDS011;11357;49.990;7.370;2022-11-15T20:08:58;1999.90;;;923.17;;
22378;SDS011;11357;49.990;7.370;2022-11-15T20:11:24;1999.90;;;880.33;;
22378;SDS011;11357;49.990;7.370;2022-11-15T20:13:50;1999.90;;;708.50;;
22378;SDS011;11357;49.990;7.370;2022-11-15T20:16:21;1999.90;;;742.27;;
22378;SDS011;11357;49.990;7.370;2022-11-15T20:18:47;1999.90;;;622.27;;
22378;SDS011;11357;49.990;7.370;2022-11-15T20:21:14;1999.90;;;612.53;;
22378;SDS011;11357;49.990;7.370;2022-11-15T20:23:40;1999.90;;;710.70;;
22378;SDS011;11357;49.990;7.370;2022-11-15T20:26:06;1999.90;;;837.07;;
22378;SDS011;11357;49.990;7.370;2022-11-15T20:28:33;1999.90;;;710.87;;
22378;SDS011;11357;49.990;7.370;2022-11-15T20:31:01;1999.90;;;623.23;;
22378;SDS011;11357;49.990;7.370;2022-11-15T20:33:27;1999.90;;;594.17;;
22378;SDS011;11357;49.990;7.370;2022-11-15T20:35:53;1999.90;;;559.50;;
22378;SDS011;11357;49.990;7.370;2022-11-15T20:38:20;1999.90;;;567.57;;
22378;SDS011;11357;49.990;7.370;2022-11-15T20:40:47;1999.90;;;795.40;;
22378;SDS011;11357;49.990;7.370;2022-11-15T20:43:14;1999.90;;;824.77;;
22378;SDS011;11357;49.990;7.370;2022-11-15T20:45:42;1999.90;;;711.97;;
22378;SDS011;11357;49.990;7.370;2022-11-15T20:48:08;1999.90;;;663.77;;
22378;SDS011;11357;49.990;7.370;2022-11-15T20:50:37;1999.90;;;610.33;;
22378;SDS011;11357;49.990;7.370;2022-11-15T20:53:04;1999.90;;;758.20;;
22378;SDS011;11357;49.990;7.370;2022-11-15T20:55:29;1999.90;;;758.83;;
22378;SDS011;11357;49.990;7.370;2022-11-15T20:57:55;1999.90;;;734.93;;
22378;SDS011;11357;49.990;7.370;2022-11-15T21:00:21;1999.90;;;678.17;;
22378;SDS011;11357;49.990;7.370;2022-11-15T21:02:50;1999.90;;;703.67;;
22378;SDS011;11357;49.990;7.370;2022-11-15T21:05:16;1999.90;;;714.53;;
22378;SDS011;11357;49.990;7.370;2022-11-15T21:07:42;1999.90;;;778.13;;
22378;SDS011;11357;49.990;7.370;2022-11-15T21:10:08;1999.90;;;728.47;;
22378;SDS011;11357;49.990;7.370;2022-11-15T21:12:53;1979.57;;;776.73;;
22378;SDS011;11357;49.990;7.370;2022-11-15T21:15:18;1999.90;;;815.20;;
22378;SDS011;11357;49.990;7.370;2022-11-15T21:17:44;1999.90;;;771.53;;